createdAt,value
2023-02-22T00:01:08.414Z,52.92
2023-02-22T00:03:36.840Z,51.70
2023-02-22T00:06:07.083Z,50.30
2023-02-22T00:08:37.653Z,50.92
2023-02-22T00:11:09.707Z,53.63
2023-02-22T00:13:39.613Z,38.00
2023-02-22T00:16:08.554Z,36.95
2023-02-22T00:18:37.831Z,35.85
2023-02-22T00:21:10.695Z,33.33
2023-02-22T00:23:43.436Z,34.22
2023-02-22T00:26:13.541Z,28.63
2023-02-22T00:28:42.571Z,28.35
2023-02-22T00:31:10.993Z,35.58
2023-02-22T00:33:40.991Z,35.72
2023-02-22T00:36:11.480Z,30.02
2023-02-22T00:38:41.512Z,29.67
2023-02-22T00:41:10.128Z,30.50
2023-02-22T00:43:39.801Z,29.63
2023-02-22T00:46:08.053Z,33.97
2023-02-22T00:48:36.374Z,29.73
2023-02-22T00:51:04.895Z,31.35
2023-02-22T00:53:33.146Z,29.65
2023-02-22T00:56:01.700Z,26.25
2023-02-22T00:58:30.027Z,26.27
2023-02-22T01:21:45.388Z,34.95
2023-02-22T01:24:16.240Z,37.20
2023-02-22T01:26:45.492Z,37.90
2023-02-22T01:29:22.215Z,38.55
2023-02-22T01:31:55.089Z,34.47
2023-02-22T01:34:24.078Z,36.22
2023-02-22T01:36:53.689Z,34.53
2023-02-22T01:39:21.802Z,32.40
2023-02-22T01:41:50.326Z,31.90
2023-02-22T01:44:27.666Z,33.45
2023-02-22T01:46:56.125Z,36.72
2023-02-22T01:49:26.606Z,33.92
2023-02-22T01:52:00.681Z,39.00
2023-02-22T01:54:32.510Z,34.50
2023-02-22T01:57:06.241Z,33.70
2023-02-22T01:59:37.682Z,31.35
2023-02-22T02:02:06.543Z,32.63
2023-02-22T02:04:36.570Z,35.33
2023-02-22T02:07:09.105Z,35.15
2023-02-22T02:09:41.169Z,33.63
2023-02-22T02:12:12.279Z,35.83
2023-02-22T02:14:42.768Z,31.35
2023-02-22T02:17:14.049Z,31.58
2023-02-22T02:19:49.519Z,30.80
2023-02-22T02:22:45.926Z,29.95
2023-02-22T02:25:48.821Z,31.15
2023-02-22T02:28:45.703Z,29.17
2023-02-22T02:31:51.308Z,30.00
2023-02-22T02:34:28.943Z,27.88
2023-02-22T02:37:09.386Z,28.42
2023-02-22T02:39:44.925Z,27.58
2023-02-22T02:42:17.943Z,27.67
2023-02-22T02:44:50.723Z,29.42
2023-02-22T02:47:23.531Z,28.13
2023-02-22T02:49:57.151Z,26.45
2023-02-22T02:54:56.611Z,25.45
2023-02-22T02:57:24.959Z,26.42
2023-02-22T02:59:53.392Z,28.05
2023-02-22T03:02:45.913Z,28.27
2023-02-22T03:05:30.355Z,26.73
2023-02-22T03:08:07.696Z,27.35
2023-02-22T03:10:50.599Z,28.50
2023-02-22T03:13:28.949Z,30.70
2023-02-22T03:16:05.322Z,27.88
2023-02-22T03:18:41.837Z,27.90
2023-02-22T03:21:19.176Z,28.98
2023-02-22T03:23:52.403Z,30.60
2023-02-22T03:26:26.057Z,30.23
2023-02-22T03:28:57.147Z,30.02
2023-02-22T03:31:30.192Z,30.70
2023-02-22T03:34:03.822Z,29.95
2023-02-22T03:39:05.325Z,29.48
2023-02-22T03:41:38.903Z,29.33
2023-02-22T03:46:41.978Z,30.17
2023-02-22T03:49:14.982Z,31.60
2023-02-22T03:51:45.161Z,31.60
2023-02-22T03:54:16.515Z,32.97
2023-02-22T03:56:50.725Z,32.85
2023-02-22T03:59:19.622Z,32.63
2023-02-22T04:01:47.832Z,31.00
2023-02-22T04:04:16.492Z,32.08
2023-02-22T04:06:48.018Z,32.00
2023-02-22T04:09:16.558Z,31.77
2023-02-22T04:11:45.487Z,31.95
2023-02-22T04:14:14.193Z,32.30
2023-02-22T04:16:42.461Z,30.85
2023-02-22T04:19:10.920Z,30.92
2023-02-22T04:21:39.257Z,32.88
2023-02-22T04:24:09.095Z,32.30
2023-02-22T04:26:37.644Z,31.08
2023-02-22T04:29:06.266Z,31.23
2023-02-22T04:31:34.701Z,29.67
2023-02-22T04:34:03.632Z,30.05
2023-02-22T04:36:32.885Z,32.03
2023-02-22T04:39:01.417Z,33.80
2023-02-22T04:41:31.740Z,32.63
2023-02-22T04:43:59.934Z,30.90
2023-02-22T04:46:28.172Z,31.30
2023-02-22T04:48:57.928Z,30.25
2023-02-22T04:51:26.557Z,30.27
2023-02-22T04:53:54.907Z,30.92
2023-02-22T04:56:23.320Z,29.08
2023-02-22T04:58:53.019Z,29.35
2023-02-22T05:01:21.270Z,29.98
2023-02-22T05:03:49.594Z,28.90
2023-02-22T05:06:20.092Z,28.65
2023-02-22T05:08:48.414Z,29.98
2023-02-22T05:11:16.806Z,29.42
2023-02-22T05:13:45.252Z,29.15
2023-02-22T05:16:15.317Z,28.27
2023-02-22T05:18:43.645Z,29.10
2023-02-22T05:21:13.647Z,28.52
2023-02-22T05:23:41.927Z,28.27
2023-02-22T05:26:11.801Z,28.25
2023-02-22T05:28:40.241Z,29.10
2023-02-22T05:31:08.865Z,28.17
2023-02-22T05:33:39.704Z,27.92
2023-02-22T05:36:09.037Z,28.25
2023-02-22T05:38:43.678Z,27.63
2023-02-22T05:41:14.096Z,27.88
2023-02-22T05:43:43.042Z,27.60
2023-02-22T05:46:11.476Z,27.02
2023-02-22T05:48:41.042Z,27.80
2023-02-22T05:51:09.752Z,28.42
2023-02-22T05:53:38.603Z,26.95
2023-02-22T05:56:07.334Z,26.30
2023-02-22T05:58:35.521Z,26.80
2023-02-22T06:01:03.887Z,26.98
2023-02-22T06:03:32.059Z,26.58
2023-02-22T06:06:01.541Z,26.30
2023-02-22T06:08:29.806Z,27.38
2023-02-22T06:10:58.024Z,25.10
2023-02-22T06:13:26.239Z,26.30
2023-02-22T06:15:54.412Z,26.15
2023-02-22T06:18:22.813Z,26.20
2023-02-22T06:20:51.048Z,27.10
2023-02-22T06:23:20.619Z,26.70
2023-02-22T06:25:49.438Z,29.33
2023-02-22T06:28:17.706Z,29.73
2023-02-22T06:30:46.186Z,32.17
2023-02-22T06:33:14.582Z,26.67
2023-02-22T06:35:42.969Z,25.05
2023-02-22T06:38:11.171Z,26.10
2023-02-22T06:40:40.786Z,25.17
2023-02-22T06:43:10.841Z,26.88
2023-02-22T06:45:39.066Z,24.75
2023-02-22T06:48:07.637Z,25.63
2023-02-22T06:50:36.240Z,25.15
2023-02-22T06:53:05.049Z,25.88
2023-02-22T06:55:35.134Z,27.08
2023-02-22T06:58:06.039Z,24.98
2023-02-22T07:00:34.908Z,24.88
2023-02-22T07:03:05.450Z,26.25
2023-02-22T07:05:33.775Z,25.75
2023-02-22T07:08:07.312Z,25.30
2023-02-22T07:10:37.093Z,24.88
2023-02-22T07:13:08.763Z,25.88
2023-02-22T07:15:37.185Z,25.70
2023-02-22T07:18:05.840Z,24.35
2023-02-22T07:20:34.148Z,25.60
2023-02-22T07:23:02.774Z,24.77
2023-02-22T07:25:31.160Z,23.77
2023-02-22T07:27:59.888Z,24.77
2023-02-22T07:30:31.716Z,23.15
2023-02-22T07:33:02.965Z,24.13
2023-02-22T07:35:32.620Z,23.92
2023-02-22T07:38:01.322Z,25.20
2023-02-22T07:40:30.406Z,24.48
2023-02-22T07:43:00.586Z,25.38
2023-02-22T07:45:32.063Z,24.48
2023-02-22T07:48:01.542Z,23.83
2023-02-22T07:50:32.264Z,24.60
2023-02-22T07:53:02.321Z,24.45
2023-02-22T07:55:32.089Z,23.85
2023-02-22T07:58:02.032Z,22.92
2023-02-22T08:00:33.517Z,23.27
2023-02-22T08:03:02.427Z,42.17
2023-02-22T08:05:32.256Z,25.52
2023-02-22T08:08:00.750Z,50.60
2023-02-22T08:10:29.411Z,25.73
2023-02-22T08:12:57.760Z,24.08
2023-02-22T08:15:29.759Z,23.27
2023-02-22T08:18:01.011Z,23.58
2023-02-22T08:20:30.442Z,23.45
2023-02-22T08:22:59.768Z,23.38
2023-02-22T08:25:30.008Z,21.60
2023-02-22T08:28:01.487Z,21.58
2023-02-22T08:30:31.290Z,20.88
2023-02-22T08:33:02.613Z,20.45
2023-02-22T08:35:32.888Z,21.10
2023-02-22T08:38:03.054Z,20.50
2023-02-22T08:40:35.805Z,21.38
2023-02-22T08:43:04.858Z,21.67
2023-02-22T08:45:33.438Z,21.20
2023-02-22T08:48:03.794Z,20.15
2023-02-22T08:50:34.605Z,20.95
2023-02-22T08:53:04.335Z,29.55
2023-02-22T08:55:35.341Z,35.65
2023-02-22T08:58:04.499Z,19.65
2023-02-22T09:00:34.459Z,19.77
2023-02-22T09:03:05.041Z,20.02
2023-02-22T09:05:33.754Z,19.95
2023-02-22T09:08:02.717Z,20.48
2023-02-22T09:10:33.176Z,20.80
2023-02-22T09:13:02.341Z,20.80
2023-02-22T09:15:31.482Z,21.23
2023-02-22T09:17:59.995Z,19.13
2023-02-22T09:20:30.468Z,21.40
2023-02-22T09:23:03.069Z,20.83
2023-02-22T09:25:31.441Z,22.50
2023-02-22T09:27:59.615Z,22.55
2023-02-22T09:30:32.549Z,22.17
2023-02-22T09:33:03.829Z,23.58
2023-02-22T09:35:36.598Z,22.35
2023-02-22T09:38:07.377Z,22.70
2023-02-22T09:40:45.169Z,21.60
2023-02-22T09:43:36.618Z,22.33
2023-02-22T09:46:13.979Z,22.23
2023-02-22T09:48:58.987Z,22.83
2023-02-22T09:51:35.972Z,22.10
2023-02-22T09:54:07.565Z,23.65
2023-02-22T09:56:36.939Z,24.40
2023-02-22T09:59:08.610Z,24.67
2023-02-22T10:01:42.863Z,23.33
2023-02-22T10:04:19.593Z,26.15
2023-02-22T10:07:06.290Z,25.35
2023-02-22T10:09:42.717Z,25.40
2023-02-22T10:12:16.396Z,25.20
2023-02-22T10:14:52.591Z,26.10
2023-02-22T10:17:30.999Z,27.42
2023-02-22T10:20:22.178Z,25.92
2023-02-22T10:23:09.264Z,27.52
2023-02-22T10:25:40.099Z,28.05
2023-02-22T10:28:14.915Z,26.75
2023-02-22T10:30:49.355Z,27.77
2023-02-22T10:33:22.576Z,27.70
2023-02-22T10:35:53.741Z,28.98
2023-02-22T10:38:25.331Z,28.48
2023-02-22T10:40:58.221Z,29.08
2023-02-22T10:43:27.452Z,30.95
2023-02-22T10:45:58.343Z,31.20
2023-02-22T10:48:30.440Z,31.08
2023-02-22T10:51:02.130Z,32.03
2023-02-22T10:53:34.888Z,32.40
2023-02-22T10:56:09.742Z,32.70
2023-02-22T11:01:27.338Z,33.17
2023-02-22T11:04:01.462Z,34.15
2023-02-22T11:06:30.087Z,34.22
2023-02-22T11:09:12.884Z,35.00
2023-02-22T11:11:42.830Z,34.08
2023-02-22T11:14:11.905Z,33.92
2023-02-22T11:16:43.667Z,32.60
2023-02-22T11:19:23.219Z,32.70
2023-02-22T11:21:53.327Z,33.75
2023-02-22T11:24:30.331Z,34.42
2023-02-22T11:27:04.934Z,34.42
2023-02-22T11:29:36.332Z,33.95
2023-02-22T11:32:14.493Z,35.05
2023-02-22T11:34:43.754Z,35.20
2023-02-22T11:37:30.784Z,35.92
2023-02-22T11:40:22.300Z,36.65
2023-02-22T11:43:07.976Z,36.10
2023-02-22T11:45:37.409Z,38.03
2023-02-22T11:48:10.614Z,37.97
2023-02-22T11:50:54.816Z,39.20
2023-02-22T11:53:33.044Z,36.22
2023-02-22T11:56:16.098Z,36.13
2023-02-22T11:58:49.451Z,35.77
2023-02-22T12:01:27.837Z,36.63
2023-02-22T12:04:25.033Z,36.10
2023-02-22T12:07:03.476Z,35.88
2023-02-22T12:09:40.825Z,35.45
2023-02-22T12:12:20.079Z,36.88
2023-02-22T12:14:58.174Z,36.42
2023-02-22T12:17:59.325Z,37.25
2023-02-22T12:20:33.105Z,38.28
2023-02-22T12:23:14.056Z,39.05
2023-02-22T12:25:49.388Z,40.75
2023-02-22T12:28:25.107Z,41.38
2023-02-22T12:31:00.639Z,41.88
2023-02-22T12:33:32.774Z,41.25
2023-02-22T12:36:02.295Z,41.25
2023-02-22T12:38:37.445Z,41.42
2023-02-22T12:41:11.727Z,42.65
2023-02-22T12:43:47.573Z,41.80
2023-02-22T12:46:21.450Z,43.00
2023-02-22T12:48:55.884Z,42.67
2023-02-22T12:51:30.837Z,44.55
2023-02-22T12:54:07.644Z,44.00
2023-02-22T12:56:40.546Z,44.20
2023-02-22T12:59:17.787Z,43.65
2023-02-22T13:01:51.806Z,42.67
2023-02-22T13:04:21.553Z,45.50
2023-02-22T13:07:02.664Z,45.65
2023-02-22T13:09:46.821Z,45.10
2023-02-22T13:12:20.291Z,47.28
2023-02-22T13:15:03.268Z,47.35
2023-02-22T13:17:40.471Z,47.20
2023-02-22T13:20:15.686Z,50.25
2023-02-22T13:22:49.397Z,49.50
2023-02-22T13:27:52.592Z,46.20
2023-02-22T13:30:28.627Z,47.70
2023-02-22T13:33:25.693Z,46.83
2023-02-22T13:36:17.687Z,48.13
2023-02-22T13:39:29.228Z,49.78
2023-02-22T13:42:10.798Z,49.67
2023-02-22T13:45:04.269Z,48.17
2023-02-22T13:48:02.329Z,51.72
2023-02-22T13:50:59.257Z,50.15
2023-02-22T13:53:33.023Z,51.08
2023-02-22T13:56:02.390Z,50.50
2023-02-22T13:58:31.133Z,53.28
2023-02-22T14:01:00.991Z,50.35
2023-02-22T14:03:41.928Z,51.10
2023-02-22T14:06:11.709Z,53.90
2023-02-22T14:08:50.030Z,54.05
2023-02-22T14:11:54.394Z,52.20
2023-02-22T14:14:22.787Z,53.17
2023-02-22T14:17:23.347Z,51.60
2023-02-22T14:20:35.178Z,56.92
2023-02-22T14:23:35.197Z,54.10
2023-02-22T14:26:13.509Z,54.25
2023-02-22T14:28:51.561Z,54.13
2023-02-22T14:31:35.639Z,59.45
2023-02-22T14:34:12.970Z,55.78
2023-02-22T14:36:51.729Z,58.72
2023-02-22T14:39:24.628Z,57.92
2023-02-22T14:42:01.869Z,57.88
2023-02-22T14:44:36.042Z,58.30
2023-02-22T14:47:07.304Z,60.33
2023-02-22T14:49:41.409Z,59.47
2023-02-22T14:52:21.475Z,61.80
2023-02-22T14:55:08.732Z,58.78
2023-02-22T14:57:48.465Z,59.22
2023-02-22T15:00:30.662Z,58.22
2023-02-22T15:03:00.840Z,58.45
2023-02-22T15:05:32.424Z,59.20
2023-02-22T15:08:03.896Z,59.50
2023-02-22T15:10:39.778Z,61.17
2023-02-22T15:13:16.752Z,59.75
2023-02-22T15:15:48.927Z,61.03
2023-02-22T15:18:25.356Z,56.45
2023-02-22T15:20:57.795Z,60.55
2023-02-22T15:23:40.074Z,59.13
2023-02-22T15:26:08.426Z,54.25
2023-02-22T15:28:38.408Z,57.92
2023-02-22T15:31:27.031Z,58.80
2023-02-22T15:33:55.800Z,54.63
2023-02-22T15:36:28.701Z,53.97
2023-02-22T15:38:58.470Z,52.83
2023-02-22T15:41:31.656Z,53.05
2023-02-22T15:44:17.792Z,50.35
2023-02-22T15:46:50.993Z,52.90
2023-02-22T15:49:23.278Z,52.47
2023-02-22T15:52:07.134Z,52.88
2023-02-22T15:54:46.896Z,51.08
2023-02-22T15:57:17.669Z,53.53
2023-02-22T15:59:50.011Z,51.10
2023-02-22T16:02:34.473Z,51.08
2023-02-22T16:05:06.794Z,51.83
2023-02-22T16:07:40.479Z,51.63
2023-02-22T16:10:22.420Z,51.58
2023-02-22T16:12:51.919Z,50.85
2023-02-22T16:15:20.388Z,49.42
2023-02-22T16:18:01.465Z,49.13
2023-02-22T16:20:35.546Z,50.10
2023-02-22T16:23:24.601Z,48.38
2023-02-22T16:26:21.697Z,46.58
2023-02-22T16:28:52.972Z,45.88
2023-02-22T16:31:25.322Z,46.67
2023-02-22T16:33:54.389Z,46.50
2023-02-22T16:36:37.857Z,44.53
2023-02-22T16:39:07.765Z,45.45
2023-02-22T16:41:37.553Z,45.47
2023-02-22T16:44:07.908Z,44.53
2023-02-22T16:46:38.127Z,43.08
2023-02-22T16:49:06.459Z,44.65
2023-02-22T16:51:41.017Z,42.97
2023-02-22T16:54:12.830Z,43.25
2023-02-22T16:56:43.056Z,43.30
2023-02-22T16:59:15.717Z,43.08
2023-02-22T17:01:44.340Z,42.42
2023-02-22T17:04:17.863Z,42.38
2023-02-22T17:06:46.272Z,44.22
2023-02-22T17:09:15.349Z,43.58
2023-02-22T17:11:45.386Z,45.55
2023-02-22T17:14:19.032Z,45.20
2023-02-22T17:19:18.711Z,42.85
2023-02-22T17:21:47.395Z,44.53
2023-02-22T17:24:18.216Z,49.28
2023-02-22T17:26:47.979Z,47.97
2023-02-22T17:29:17.742Z,48.95
2023-02-22T17:31:49.591Z,47.00
2023-02-22T17:34:17.949Z,43.33
2023-02-22T17:36:46.390Z,44.90
2023-02-22T17:39:14.588Z,49.22
2023-02-22T17:41:42.770Z,49.30
2023-02-22T17:44:12.519Z,48.42
2023-02-22T17:46:41.942Z,47.45
2023-02-22T17:49:10.318Z,50.05
2023-02-22T17:51:41.377Z,49.38
2023-02-22T17:54:10.509Z,51.15
2023-02-22T17:56:38.786Z,50.78
2023-02-22T17:59:09.255Z,53.03
2023-02-22T18:01:39.107Z,55.55
2023-02-22T18:04:07.527Z,51.70
2023-02-22T18:06:38.174Z,54.10
2023-02-22T18:09:10.553Z,56.83
2023-02-22T18:11:41.220Z,54.20
2023-02-22T18:14:10.876Z,52.08
2023-02-22T18:16:41.583Z,51.30
2023-02-22T18:19:10.104Z,52.95
2023-02-22T18:21:38.766Z,52.30
2023-02-22T18:24:07.873Z,54.08
2023-02-22T18:26:39.105Z,53.40
2023-02-22T18:29:07.552Z,53.42
2023-02-22T18:31:35.870Z,52.85
2023-02-22T18:34:05.535Z,56.35
2023-02-22T18:36:33.786Z,54.58
2023-02-22T18:39:03.288Z,57.05
2023-02-22T18:41:31.573Z,58.58
2023-02-22T18:44:00.588Z,59.22
2023-02-22T18:46:30.484Z,61.28
2023-02-22T18:48:59.768Z,62.67
2023-02-22T18:51:30.681Z,60.97
2023-02-22T18:54:01.211Z,63.30
2023-02-22T18:56:30.932Z,64.43
2023-02-22T18:59:00.720Z,66.90
2023-02-22T19:01:29.787Z,68.65
2023-02-22T19:03:58.263Z,67.13
2023-02-22T19:06:26.592Z,66.35
2023-02-22T19:08:56.258Z,64.15
2023-02-22T19:11:25.862Z,63.97
2023-02-22T19:13:57.096Z,62.70
2023-02-22T19:16:27.422Z,63.72
2023-02-22T19:18:58.029Z,62.72
2023-02-22T19:21:27.478Z,63.80
2023-02-22T19:23:57.647Z,62.13
2023-02-22T19:26:27.554Z,62.47
2023-02-22T19:28:57.634Z,64.10
2023-02-22T19:31:30.358Z,66.35
2023-02-22T19:34:01.889Z,65.90
2023-02-22T19:36:30.290Z,63.42
2023-02-22T19:39:02.069Z,60.58
2023-02-22T19:41:31.723Z,64.20
2023-02-22T19:43:59.982Z,63.53
2023-02-22T19:46:28.554Z,61.35
2023-02-22T19:48:57.337Z,63.13
2023-02-22T19:51:28.006Z,62.25
2023-02-22T19:54:00.496Z,61.67
2023-02-22T19:56:30.884Z,58.72
2023-02-22T19:59:00.863Z,59.08
2023-02-22T20:01:33.130Z,60.60
2023-02-22T20:04:04.147Z,60.15
2023-02-22T20:06:35.782Z,59.45
2023-02-22T20:09:06.777Z,59.08
2023-02-22T20:11:35.487Z,61.60
2023-02-22T20:14:06.713Z,59.60
2023-02-22T20:16:36.055Z,57.30
2023-02-22T20:19:04.586Z,58.97
2023-02-22T20:21:36.670Z,57.38
2023-02-22T20:24:08.578Z,58.40
2023-02-22T20:26:38.602Z,55.30
2023-02-22T20:29:09.154Z,60.53
2023-02-22T20:31:38.214Z,58.85
2023-02-22T20:34:07.452Z,57.25
2023-02-22T20:36:37.161Z,56.65
2023-02-22T20:39:13.290Z,55.22
2023-02-22T20:41:43.612Z,57.85
2023-02-22T20:44:14.005Z,56.17
2023-02-22T20:46:42.916Z,58.15
2023-02-22T20:49:13.771Z,57.33
2023-02-22T20:51:42.263Z,55.47
2023-02-22T20:54:12.497Z,55.33
2023-02-22T20:56:42.696Z,53.38
2023-02-22T20:59:13.082Z,53.63
2023-02-22T21:01:42.477Z,55.72
2023-02-22T21:04:11.358Z,54.35
2023-02-22T21:06:40.405Z,50.75
2023-02-22T21:09:14.800Z,53.47
2023-02-22T21:11:43.744Z,52.55
2023-02-22T21:14:16.857Z,51.03
2023-02-22T21:16:46.473Z,53.25
2023-02-22T21:19:27.964Z,50.95
2023-02-22T21:21:57.962Z,50.80
2023-02-22T21:24:29.112Z,54.08
2023-02-22T21:26:59.198Z,50.90
2023-02-22T21:29:28.176Z,55.47
2023-02-22T21:31:56.989Z,50.72
2023-02-22T21:34:25.977Z,50.65
2023-02-22T21:36:54.548Z,52.08
2023-02-22T21:39:28.661Z,49.58
2023-02-22T21:42:02.150Z,47.75
2023-02-22T21:44:30.806Z,49.05
2023-02-22T21:46:59.137Z,48.30
2023-02-22T21:49:28.340Z,48.15
2023-02-22T21:51:56.670Z,49.72
2023-02-22T21:54:25.042Z,50.28
2023-02-22T21:56:54.532Z,48.88
2023-02-22T21:59:26.750Z,49.80
2023-02-22T22:01:56.690Z,49.38
2023-02-22T22:04:27.688Z,49.95
2023-02-22T22:06:57.796Z,49.22
2023-02-22T22:09:29.142Z,51.88
2023-02-22T22:11:59.244Z,50.88
2023-02-22T22:14:29.230Z,52.15
2023-02-22T22:16:59.444Z,52.80
2023-02-22T22:19:29.330Z,49.78
2023-02-22T22:21:58.001Z,47.95
2023-02-22T22:24:28.828Z,49.38
2023-02-22T22:27:02.303Z,47.85
2023-02-22T22:29:34.375Z,46.92
2023-02-22T22:32:03.426Z,44.85
2023-02-22T22:34:34.084Z,48.08
2023-02-22T22:37:03.029Z,44.13
2023-02-22T22:39:31.685Z,44.92
2023-02-22T22:42:00.020Z,42.83
2023-02-22T22:44:32.937Z,45.97
2023-02-22T22:47:05.512Z,44.33
2023-02-22T22:49:40.399Z,44.05
2023-02-22T22:52:09.133Z,46.35
2023-02-22T22:54:38.339Z,47.88
2023-02-22T22:57:06.616Z,46.33
2023-02-22T22:59:36.330Z,48.38
2023-02-22T23:02:10.863Z,43.50
2023-02-22T23:04:39.161Z,45.40
2023-02-22T23:07:07.658Z,46.50
2023-02-22T23:09:38.980Z,44.65
2023-02-22T23:12:09.842Z,45.13
2023-02-22T23:14:40.226Z,47.80
2023-02-22T23:17:15.318Z,46.22
2023-02-22T23:19:45.270Z,48.17
2023-02-22T23:22:14.447Z,49.63
2023-02-22T23:24:44.548Z,48.03
2023-02-22T23:27:12.890Z,46.97
2023-02-22T23:29:42.949Z,48.80
2023-02-22T23:32:14.442Z,47.55
2023-02-22T23:34:42.846Z,53.95
2023-02-22T23:37:14.032Z,51.35
2023-02-22T23:39:42.473Z,50.28
2023-02-22T23:42:10.884Z,48.17
2023-02-22T23:44:40.233Z,46.33
2023-02-22T23:47:09.842Z,44.60
2023-02-22T23:49:43.397Z,43.55
2023-02-22T23:52:16.128Z,43.50
2023-02-22T23:54:46.849Z,43.37
2023-02-22T23:57:17.656Z,42.72
2023-02-22T23:59:46.142Z,43.40
